Time;durP1;ratioP1;P1;durP2;ratioP2;P2;SDS_P1;SDS_P2;PMS_P1;PMS_P2;Temp;Humidity;BMP_temperature;BMP_pressure;BME280_temperature;BME280_humidity;BME280_pressure;Samples;Min_cycle;Max_cycle;Signal;HPM_P1;HPM_P2
2023/09/25 00:00:48;;;;;;;14.82;7.80;;;21.00;80.40;;;;;;5025599;28;20060;-57
2023/09/25 00:03:14;;;;;;;15.52;7.90;;;21.00;80.60;;;;;;5025728;28;20029;-58
2023/09/25 00:05:40;;;;;;;14.95;8.10;;;21.00;80.90;;;;;;5025367;28;20025;-56
2023/09/25 00:08:06;;;;;;;14.05;8.90;;;21.00;81.10;;;;;;5025956;28;20037;-55
2023/09/25 00:10:32;;;;;;;12.60;7.85;;;21.00;81.60;;;;;;5025046;28;20026;-57
2023/09/25 00:12:58;;;;;;;12.90;7.80;;;21.00;81.60;;;;;;5025149;28;20470;-58
2023/09/25 00:15:25;;;;;;;13.85;8.63;;;21.00;81.80;;;;;;5025419;28;20026;-57
2023/09/25 00:17:51;;;;;;;15.98;7.97;;;21.00;81.80;;;;;;5026119;28;20061;-58
2023/09/25 00:20:20;;;;;;;15.85;7.82;;;21.00;81.60;;;;;;5025786;28;20022;-58
2023/09/25 00:22:45;;;;;;;12.25;7.93;;;21.00;81.60;;;;;;5025280;28;20390;-58
2023/09/25 00:25:11;;;;;;;12.32;8.55;;;21.00;81.60;;;;;;5024758;28;20026;-57
2023/09/25 00:27:37;;;;;;;15.07;7.75;;;21.00;81.60;;;;;;5025758;28;20022;-57
2023/09/25 00:30:08;;;;;;;14.95;8.35;;;21.00;81.60;;;;;;5025129;28;20026;-58
2023/09/25 00:32:34;;;;;;;15.18;7.97;;;21.00;81.40;;;;;;5025323;28;20030;-58
2023/09/25 00:35:01;;;;;;;13.40;8.02;;;21.00;81.30;;;;;;5025590;28;20026;-58
2023/09/25 00:37:27;;;;;;;11.48;7.65;;;21.00;81.10;;;;;;5025334;28;20022;-57
2023/09/25 00:39:53;;;;;;;14.48;7.88;;;20.90;81.20;;;;;;5025613;28;20040;-57
2023/09/25 00:42:18;;;;;;;14.20;8.07;;;20.90;81.40;;;;;;5025463;28;20029;-57
2023/09/25 00:44:44;;;;;;;11.85;7.70;;;20.90;81.50;;;;;;5025326;28;20022;-58
2023/09/25 00:47:10;;;;;;;11.50;8.88;;;20.90;82.10;;;;;;5024848;28;20026;-57
2023/09/25 00:49:36;;;;;;;15.00;8.55;;;20.90;82.10;;;;;;5024890;28;20030;-56
2023/09/25 00:52:03;;;;;;;14.23;8.60;;;20.90;82.00;;;;;;5025886;28;20030;-58
2023/09/25 00:54:31;;;;;;;12.90;9.52;;;20.90;82.30;;;;;;5025102;28;20041;-58
2023/09/25 00:56:58;;;;;;;16.27;8.57;;;20.90;82.50;;;;;;5024954;28;20054;-56
2023/09/25 00:59:25;;;;;;;13.48;8.32;;;20.80;82.50;;;;;;5024767;28;20046;-58
2023/09/25 01:01:51;;;;;;;14.73;8.57;;;20.80;82.30;;;;;;5025003;28;20034;-57
2023/09/25 01:04:17;;;;;;;14.43;8.27;;;20.80;82.20;;;;;;5025122;28;20025;-58
2023/09/25 01:06:43;;;;;;;12.20;8.98;;;20.80;81.80;;;;;;5025056;28;20101;-58
2023/09/25 01:09:12;;;;;;;13.27;7.88;;;20.80;81.70;;;;;;5024666;28;20026;-57
2023/09/25 01:11:39;;;;;;;12.77;8.70;;;20.70;81.50;;;;;;5024562;28;20025;-58
2023/09/25 01:14:05;;;;;;;19.60;8.95;;;20.70;81.20;;;;;;5024518;28;20097;-57
2023/09/25 01:16:31;;;;;;;13.10;8.35;;;20.70;80.80;;;;;;5024100;28;20057;-58
2023/09/25 01:18:57;;;;;;;13.52;8.52;;;20.60;80.40;;;;;;5024252;28;20036;-58
2023/09/25 01:21:23;;;;;;;12.20;8.10;;;20.60;80.30;;;;;;5024813;28;20053;-56
2023/09/25 01:23:49;;;;;;;12.18;8.50;;;20.50;80.10;;;;;;5024318;28;20025;-56
2023/09/25 01:26:15;;;;;;;13.85;8.40;;;20.50;80.00;;;;;;5023711;28;20037;-57
2023/09/25 01:28:40;;;;;;;20.00;8.48;;;20.50;79.70;;;;;;5024215;28;20030;-58
2023/09/25 01:31:07;;;;;;;10.70;8.65;;;20.50;79.60;;;;;;5023929;28;20045;-57
2023/09/25 01:33:33;;;;;;;14.02;8.30;;;20.50;79.60;;;;;;5023781;28;20026;-57
2023/09/25 01:35:59;;;;;;;11.95;8.10;;;20.50;79.20;;;;;;5024047;28;20041;-56
2023/09/25 01:38:24;;;;;;;14.95;8.20;;;20.50;78.90;;;;;;5023686;28;20030;-57
2023/09/25 01:40:50;;;;;;;15.07;8.13;;;20.40;78.40;;;;;;5023929;28;20029;-56
2023/09/25 01:43:15;;;;;;;21.45;8.57;;;20.40;78.20;;;;;;5023030;28;20026;-58
2023/09/25 01:45:41;;;;;;;17.75;8.50;;;20.40;78.00;;;;;;5023786;28;20022;-57
2023/09/25 01:48:07;;;;;;;16.88;9.52;;;20.40;77.90;;;;;;5023568;28;20085;-58
2023/09/25 01:50:32;;;;;;;15.82;8.32;;;20.40;78.00;;;;;;5023601;28;20030;-57
2023/09/25 01:53:00;;;;;;;10.68;7.78;;;20.40;77.90;;;;;;5024040;28;20026;-58
2023/09/25 01:55:36;;;;;;;14.80;8.38;;;20.30;77.80;;;;;;5023397;28;20033;-56
2023/09/25 01:58:08;;;;;;;15.43;8.88;;;20.30;77.70;;;;;;5022765;28;20025;-58
2023/09/25 02:00:35;;;;;;;11.75;8.52;;;20.30;77.60;;;;;;5023251;28;20038;-59
2023/09/25 02:03:01;;;;;;;13.00;8.68;;;20.30;76.90;;;;;;5024095;28;20381;-57
2023/09/25 02:05:26;;;;;;;13.82;8.23;;;20.30;77.40;;;;;;5023863;28;20033;-57
2023/09/25 02:07:52;;;;;;;11.10;8.35;;;20.30;77.20;;;;;;5022870;28;20029;-58
2023/09/25 02:10:18;;;;;;;11.85;8.20;;;20.20;77.30;;;;;;5023107;28;20053;-58
2023/09/25 02:12:44;;;;;;;14.70;9.05;;;20.20;77.50;;;;;;5005366;28;20029;-56
2023/09/25 02:15:10;;;;;;;14.02;9.02;;;20.20;78.00;;;;;;5023063;28;20053;-57
2023/09/25 02:17:36;;;;;;;13.73;8.68;;;20.20;77.30;;;;;;5023791;28;20033;-59
2023/09/25 02:20:20;;;;;;;19.27;9.32;;;20.20;77.40;;;;;;5022868;28;20105;-58
2023/09/25 02:22:47;;;;;;;18.88;9.13;;;20.20;77.50;;;;;;5024362;28;20127;-58
2023/09/25 02:25:13;;;;;;;12.63;8.48;;;20.20;77.60;;;;;;5022885;28;20081;-58
2023/09/25 02:27:41;;;;;;;12.65;8.75;;;20.20;77.70;;;;;;5023447;28;20030;-58
2023/09/25 02:30:10;;;;;;;15.07;9.10;;;20.20;77.90;;;;;;5022542;28;20053;-58
2023/09/25 02:32:37;;;;;;;16.40;9.32;;;20.20;77.90;;;;;;5023395;28;20041;-56
2023/09/25 02:35:04;;;;;;;14.35;9.15;;;20.20;77.90;;;;;;5023416;28;20468;-58
2023/09/25 02:37:31;;;;;;;16.80;9.30;;;20.10;77.70;;;;;;5022692;28;20056;-57
2023/09/25 02:39:57;;;;;;;15.73;9.52;;;20.10;77.80;;;;;;5022762;28;20033;-58
2023/09/25 02:42:22;;;;;;;10.30;8.68;;;20.10;77.90;;;;;;5022882;28;20458;-58
2023/09/25 02:44:48;;;;;;;14.00;9.45;;;20.10;78.10;;;;;;5023272;28;20054;-57
2023/09/25 02:47:14;;;;;;;11.95;9.15;;;20.10;78.20;;;;;;5022220;28;20077;-58
2023/09/25 02:49:40;;;;;;;17.55;9.38;;;20.10;78.60;;;;;;5005112;28;20030;-57
2023/09/25 02:52:05;;;;;;;13.63;8.50;;;20.10;78.60;;;;;;5023022;28;20034;-58
2023/09/25 02:54:31;;;;;;;14.55;9.30;;;20.10;78.70;;;;;;5022879;28;20478;-58
2023/09/25 02:56:57;;;;;;;12.63;9.40;;;20.10;78.80;;;;;;5005498;28;20065;-58
2023/09/25 02:59:22;;;;;;;17.13;9.55;;;20.10;78.90;;;;;;5014589;28;20061;-56
2023/09/25 03:01:48;;;;;;;12.88;9.68;;;20.10;79.00;;;;;;5003257;28;20081;-57
2023/09/25 03:04:13;;;;;;;12.52;9.98;;;20.10;79.20;;;;;;5002773;28;20026;-56
2023/09/25 03:06:39;;;;;;;10.38;9.32;;;20.10;79.40;;;;;;5003284;28;20026;-58
2023/09/25 03:09:05;;;;;;;15.00;9.40;;;20.00;79.00;;;;;;5003339;28;20018;-59
2023/09/25 03:11:31;;;;;;;14.35;9.52;;;20.00;79.00;;;;;;5002996;28;20026;-58
2023/09/25 03:13:57;;;;;;;12.98;9.82;;;20.00;78.90;;;;;;5002657;28;20034;-58
2023/09/25 03:16:23;;;;;;;13.35;9.75;;;20.00;78.60;;;;;;5003069;28;20070;-58
2023/09/25 03:18:50;;;;;;;14.30;9.25;;;19.90;78.60;;;;;;5003860;28;20041;-58
2023/09/25 03:21:17;;;;;;;13.10;10.05;;;19.90;79.00;;;;;;5005259;28;20027;-57
2023/09/25 03:23:43;;;;;;;12.60;9.68;;;19.80;79.50;;;;;;5006544;28;20026;-58
2023/09/25 03:26:19;;;;;;;16.35;10.75;;;19.80;79.40;;;;;;5005918;28;20073;-57
2023/09/25 03:28:46;;;;;;;13.18;10.10;;;19.80;79.30;;;;;;5006885;28;20078;-56
2023/09/25 03:31:12;;;;;;;16.58;9.90;;;19.70;79.90;;;;;;5005954;28;20054;-58
2023/09/25 03:33:39;;;;;;;14.35;11.73;;;19.70;80.40;;;;;;5006613;28;20034;-56
2023/09/25 03:36:05;;;;;;;16.52;10.50;;;19.80;80.60;;;;;;5005811;28;20034;-57
2023/09/25 03:38:31;;;;;;;15.88;10.95;;;19.80;80.80;;;;;;5005377;28;20387;-58
2023/09/25 03:40:57;;;;;;;16.42;11.38;;;19.80;81.10;;;;;;5005613;28;20454;-57
2023/09/25 03:43:22;;;;;;;20.38;11.85;;;19.80;81.30;;;;;;5006245;28;20030;-58
2023/09/25 03:45:48;;;;;;;14.48;10.80;;;19.80;81.40;;;;;;5005879;28;20038;-57
2023/09/25 03:48:14;;;;;;;18.65;11.98;;;19.80;81.40;;;;;;5005703;28;20030;-55
2023/09/25 03:50:39;;;;;;;14.90;11.68;;;19.90;81.50;;;;;;5005852;28;20038;-55
2023/09/25 03:53:05;;;;;;;17.70;11.60;;;19.80;81.50;;;;;;5004687;28;20039;-58
2023/09/25 03:55:31;;;;;;;20.52;11.68;;;19.90;81.60;;;;;;5004658;28;20033;-58
2023/09/25 03:57:56;;;;;;;14.80;10.90;;;19.90;81.70;;;;;;5004169;28;20034;-57
2023/09/25 04:00:23;;;;;;;14.52;11.95;;;19.90;81.60;;;;;;5003953;28;20130;-57
2023/09/25 04:02:50;;;;;;;14.23;11.38;;;19.90;81.50;;;;;;5004698;28;20067;-56
2023/09/25 04:05:16;;;;;;;17.13;11.27;;;19.90;81.50;;;;;;5004426;28;20027;-58
2023/09/25 04:07:42;;;;;;;20.40;11.35;;;19.90;81.50;;;;;;5005330;28;20058;-58
2023/09/25 04:10:08;;;;;;;17.55;10.27;;;19.90;81.70;;;;;;5005572;28;20027;-56
2023/09/25 04:12:34;;;;;;;17.08;10.45;;;19.90;82.00;;;;;;5005680;28;20046;-58
2023/09/25 04:15:01;;;;;;;13.63;10.98;;;19.90;82.10;;;;;;5005307;28;20030;-58
2023/09/25 04:17:27;;;;;;;13.57;9.63;;;19.90;82.20;;;;;;5004628;28;20034;-57
2023/09/25 04:19:53;;;;;;;15.32;9.80;;;19.90;82.30;;;;;;5003029;28;20037;-58
2023/09/25 04:22:20;;;;;;;12.20;9.65;;;19.90;82.50;;;;;;5003317;28;20030;-57
2023/09/25 04:24:46;;;;;;;14.45;9.27;;;19.90;82.40;;;;;;5002477;28;20294;-58
2023/09/25 04:27:12;;;;;;;13.68;9.35;;;20.00;82.50;;;;;;5003005;28;20054;-56
2023/09/25 04:29:38;;;;;;;14.00;9.55;;;20.00;82.30;;;;;;5003636;28;20026;-58
2023/09/25 04:32:06;;;;;;;13.05;8.82;;;19.90;82.40;;;;;;5002978;28;20030;-57
2023/09/25 04:34:31;;;;;;;14.57;9.80;;;20.00;82.50;;;;;;5003946;28;20058;-57
2023/09/25 04:36:58;;;;;;;14.38;8.35;;;20.00;82.60;;;;;;5004621;28;20509;-56
2023/09/25 04:39:24;;;;;;;11.15;8.77;;;20.00;82.50;;;;;;5005286;28;20049;-58
2023/09/25 04:41:50;;;;;;;12.73;9.35;;;20.00;82.50;;;;;;5005043;28;20388;-58
2023/09/25 04:44:16;;;;;;;13.70;8.73;;;20.10;82.50;;;;;;5004833;28;20034;-58
2023/09/25 04:46:42;;;;;;;13.20;8.70;;;20.10;82.50;;;;;;5004261;28;20391;-56
2023/09/25 04:49:08;;;;;;;12.05;8.75;;;20.20;82.50;;;;;;5004897;28;20032;-58
2023/09/25 04:51:34;;;;;;;12.30;8.88;;;20.20;82.30;;;;;;5003427;28;20041;-57
2023/09/25 04:54:00;;;;;;;11.88;9.40;;;20.30;82.40;;;;;;5002915;28;20030;-57
2023/09/25 04:56:27;;;;;;;11.85;9.23;;;20.30;82.40;;;;;;5002226;28;20398;-57
2023/09/25 04:58:53;;;;;;;15.93;8.95;;;20.40;82.40;;;;;;5002524;28;20077;-56
2023/09/25 05:01:19;;;;;;;14.38;8.90;;;20.40;82.40;;;;;;5002338;28;20041;-56
2023/09/25 05:03:46;;;;;;;11.40;8.80;;;20.40;82.50;;;;;;5002500;28;20031;-59
2023/09/25 05:06:12;;;;;;;13.32;8.68;;;20.40;82.50;;;;;;5003221;28;20440;-58
2023/09/25 05:08:38;;;;;;;13.40;9.32;;;20.50;82.60;;;;;;5004924;28;20026;-57
2023/09/25 05:11:07;;;;;;;15.25;9.18;;;20.50;82.70;;;;;;5004455;28;20121;-56
2023/09/25 05:13:33;;;;;;;11.30;9.13;;;20.60;82.80;;;;;;5002811;28;20597;-57
2023/09/25 05:16:00;;;;;;;12.20;8.98;;;20.60;82.80;;;;;;5002188;28;20504;-58
2023/09/25 05:18:26;;;;;;;12.13;8.98;;;20.60;82.90;;;;;;5002026;28;20031;-57
2023/09/25 05:20:51;;;;;;;16.38;9.43;;;20.70;83.10;;;;;;5002145;28;20417;-57
2023/09/25 05:23:20;;;;;;;12.98;9.13;;;20.70;83.10;;;;;;5002280;28;20026;-56
2023/09/25 05:25:46;;;;;;;12.57;9.23;;;20.80;83.10;;;;;;5002915;28;20022;-57
2023/09/25 05:28:11;;;;;;;15.52;9.80;;;20.80;83.20;;;;;;5002109;28;20046;-58
2023/09/25 05:30:37;;;;;;;15.18;10.30;;;20.80;83.20;;;;;;5001932;28;20026;-58
2023/09/25 05:33:03;;;;;;;11.73;8.73;;;20.90;83.10;;;;;;5002846;28;20018;-58
2023/09/25 05:35:30;;;;;;;13.95;9.75;;;21.00;83.20;;;;;;5002509;28;20033;-56
2023/09/25 05:37:55;;;;;;;14.95;9.75;;;21.00;83.20;;;;;;5002958;28;20105;-57
2023/09/25 05:40:21;;;;;;;14.32;10.10;;;21.00;83.20;;;;;;5003110;28;20038;-59
2023/09/25 05:42:48;;;;;;;14.10;9.32;;;21.10;83.30;;;;;;5003656;28;20031;-56
2023/09/25 05:45:16;;;;;;;15.38;10.32;;;21.10;83.50;;;;;;5002051;28;20030;-57
2023/09/25 05:47:43;;;;;;;11.77;9.75;;;21.10;83.30;;;;;;5003686;28;20026;-57
2023/09/25 05:50:10;;;;;;;15.65;10.00;;;21.20;83.30;;;;;;5003178;28;20030;-58
2023/09/25 05:52:39;;;;;;;14.85;8.95;;;21.20;82.80;;;;;;4983227;28;20054;-57
2023/09/25 05:55:06;;;;;;;11.70;9.20;;;21.30;82.60;;;;;;5001158;28;20034;-56
2023/09/25 05:57:32;;;;;;;11.80;9.27;;;21.30;82.70;;;;;;5001533;28;20045;-57
2023/09/25 05:59:59;;;;;;;12.40;9.40;;;21.40;83.10;;;;;;5012190;28;20049;-57
2023/09/25 06:02:27;;;;;;;13.27;8.55;;;21.90;82.80;;;;;;5018479;28;20057;-56
2023/09/25 06:04:53;;;;;;;12.20;8.88;;;22.60;80.70;;;;;;5019865;28;20037;-56
2023/09/25 06:07:19;;;;;;;13.73;9.27;;;23.20;78.50;;;;;;5019402;28;20022;-58
2023/09/25 06:09:45;;;;;;;9.77;8.43;;;23.70;76.00;;;;;;5019019;28;20030;-58
2023/09/25 06:12:11;;;;;;;11.95;7.82;;;24.30;73.90;;;;;;5019911;28;20114;-57
2023/09/25 06:14:37;;;;;;;11.27;8.45;;;24.50;72.20;;;;;;5000798;28;20447;-58
2023/09/25 06:17:02;;;;;;;14.15;8.10;;;24.60;71.80;;;;;;5006277;28;20063;-56
2023/09/25 06:19:28;;;;;;;12.43;8.80;;;24.40;71.90;;;;;;5002954;28;20061;-58
2023/09/25 06:21:54;;;;;;;12.07;7.90;;;24.30;72.20;;;;;;5016577;28;20037;-56
2023/09/25 06:24:21;;;;;;;10.52;8.25;;;24.10;72.70;;;;;;5012543;28;20044;-55
2023/09/25 06:26:47;;;;;;;12.40;9.18;;;23.90;73.20;;;;;;5011072;28;20041;-58
2023/09/25 06:29:14;;;;;;;10.85;8.65;;;23.70;73.70;;;;;;5005774;28;20062;-56
2023/09/25 06:31:41;;;;;;;12.88;8.25;;;23.50;74.10;;;;;;5007855;28;20030;-58
2023/09/25 06:34:09;;;;;;;11.07;8.43;;;23.40;74.30;;;;;;4986848;28;20031;-58
2023/09/25 06:36:36;;;;;;;13.18;8.75;;;23.20;74.30;;;;;;5001763;28;20027;-57
2023/09/25 06:39:06;;;;;;;13.10;8.63;;;23.10;74.60;;;;;;4993177;28;20026;-57
2023/09/25 06:41:32;;;;;;;12.20;8.70;;;23.00;75.00;;;;;;5001965;28;20426;-57
2023/09/25 06:43:57;;;;;;;11.57;9.23;;;22.90;75.60;;;;;;4996656;28;20019;-58
2023/09/25 06:46:23;;;;;;;13.63;9.73;;;22.80;76.00;;;;;;4976875;28;20034;-57
2023/09/25 06:48:50;;;;;;;14.10;10.00;;;22.80;76.30;;;;;;4999840;28;20039;-57
2023/09/25 06:51:20;;;;;;;11.00;9.45;;;22.70;76.50;;;;;;4998637;28;20660;-58
2023/09/25 06:53:45;;;;;;;14.02;9.73;;;22.70;76.80;;;;;;4991490;28;20034;-58
2023/09/25 06:56:11;;;;;;;11.80;9.65;;;22.60;77.30;;;;;;4994784;28;20558;-58
2023/09/25 06:58:37;;;;;;;14.63;9.77;;;22.60;77.70;;;;;;4998985;28;20041;-56
2023/09/25 07:01:03;;;;;;;14.85;10.10;;;22.60;78.00;;;;;;4999244;28;20038;-55
2023/09/25 07:03:29;;;;;;;15.18;11.15;;;22.60;78.10;;;;;;4996413;28;20029;-56
2023/09/25 07:05:56;;;;;;;13.93;10.13;;;22.60;78.30;;;;;;4997480;28;20035;-57
2023/09/25 07:08:22;;;;;;;15.10;10.80;;;22.60;78.60;;;;;;5006424;28;20018;-58
2023/09/25 07:10:49;;;;;;;12.35;9.77;;;22.60;78.50;;;;;;5007983;28;20121;-57
2023/09/25 07:13:15;;;;;;;11.90;10.27;;;22.60;79.10;;;;;;5001532;28;20527;-58
2023/09/25 07:15:41;;;;;;;12.45;10.07;;;22.60;78.60;;;;;;4996010;28;20082;-58
2023/09/25 07:18:07;;;;;;;16.02;10.15;;;22.60;78.70;;;;;;5003232;28;20030;-58
2023/09/25 07:20:32;;;;;;;13.52;10.32;;;22.60;78.50;;;;;;5001483;28;20026;-56
2023/09/25 07:22:58;;;;;;;13.10;9.73;;;22.60;78.30;;;;;;4998408;28;20086;-58
2023/09/25 07:25:24;;;;;;;10.48;9.27;;;22.60;78.30;;;;;;5002210;28;20061;-57
2023/09/25 07:27:50;;;;;;;10.90;8.52;;;22.60;77.80;;;;;;5000819;28;20030;-58
2023/09/25 07:30:15;;;;;;;10.95;8.27;;;22.60;77.20;;;;;;5003253;28;20033;-58
2023/09/25 07:32:42;;;;;;;11.38;8.43;;;22.50;76.90;;;;;;5006420;28;20033;-57
2023/09/25 07:35:10;;;;;;;11.38;8.35;;;22.50;76.80;;;;;;5006169;28;20034;-58
2023/09/25 07:37:37;;;;;;;11.98;9.25;;;22.50;76.70;;;;;;5002011;28;20037;-56
2023/09/25 07:40:09;;;;;;;11.85;8.75;;;22.50;76.40;;;;;;5008839;28;20041;-58
2023/09/25 07:42:35;;;;;;;12.30;8.50;;;22.50;76.30;;;;;;5001610;28;20282;-57
2023/09/25 07:45:05;;;;;;;10.63;9.23;;;22.50;76.00;;;;;;4996580;28;20514;-59
2023/09/25 07:47:31;;;;;;;10.20;8.00;;;22.50;75.90;;;;;;4996133;28;20045;-58
2023/09/25 07:49:57;;;;;;;12.88;9.40;;;22.50;75.70;;;;;;4993263;28;20042;-57
2023/09/25 07:52:24;;;;;;;11.00;8.55;;;22.50;75.20;;;;;;4994543;28;20026;-58
2023/09/25 07:54:51;;;;;;;14.50;9.10;;;22.40;74.80;;;;;;4996818;28;20102;-58
2023/09/25 07:57:21;;;;;;;14.80;9.15;;;22.40;74.90;;;;;;4989436;28;20034;-57
2023/09/25 07:59:50;;;;;;;12.88;8.90;;;22.40;74.90;;;;;;5003048;28;20041;-59
2023/09/25 08:02:20;;;;;;;14.57;9.32;;;22.40;75.20;;;;;;5016181;28;20049;-57
2023/09/25 08:04:47;;;;;;;12.73;9.27;;;22.40;75.40;;;;;;5016142;28;20057;-58
2023/09/25 08:07:13;;;;;;;12.52;9.10;;;22.30;75.10;;;;;;5021947;28;20076;-58
2023/09/25 08:09:39;;;;;;;11.80;8.98;;;22.30;75.20;;;;;;5016484;28;20608;-58
2023/09/25 08:12:05;;;;;;;11.60;9.80;;;22.30;75.00;;;;;;5020761;28;20115;-58
2023/09/25 08:14:32;;;;;;;14.27;9.30;;;22.30;74.80;;;;;;5019564;28;20426;-57
2023/09/25 08:16:58;;;;;;;10.93;8.63;;;22.30;74.10;;;;;;5017681;28;20086;-58
2023/09/25 08:19:24;;;;;;;10.55;8.70;;;22.30;74.00;;;;;;5011599;28;20030;-57
2023/09/25 08:21:53;;;;;;;11.25;8.85;;;22.30;73.60;;;;;;5010932;28;20092;-58
2023/09/25 08:24:19;;;;;;;12.18;8.43;;;22.30;73.60;;;;;;5008797;28;20424;-58
2023/09/25 08:26:46;;;;;;;11.20;8.75;;;22.30;73.30;;;;;;5007938;28;20035;-58
2023/09/25 08:29:16;;;;;;;11.80;8.80;;;22.30;72.30;;;;;;5010816;28;20485;-56
2023/09/25 08:31:44;;;;;;;11.82;8.68;;;22.40;72.10;;;;;;5011797;28;20029;-57
2023/09/25 08:34:11;;;;;;;13.73;8.55;;;22.30;71.50;;;;;;5010525;28;20061;-58
2023/09/25 08:36:37;;;;;;;10.18;8.07;;;22.30;71.40;;;;;;5011784;28;20059;-56
2023/09/25 08:39:04;;;;;;;11.10;8.30;;;22.30;71.30;;;;;;5010967;28;20041;-58
2023/09/25 08:41:31;;;;;;;12.77;8.60;;;22.30;71.00;;;;;;5010823;28;20383;-57
2023/09/25 08:43:57;;;;;;;10.48;8.63;;;22.40;70.00;;;;;;5010310;28;20030;-58
2023/09/25 08:46:24;;;;;;;14.13;7.88;;;22.40;69.80;;;;;;5017319;28;20025;-58
2023/09/25 08:48:52;;;;;;;12.38;8.63;;;22.40;68.50;;;;;;5008851;28;20498;-56
2023/09/25 08:51:20;;;;;;;9.88;8.85;;;22.40;67.90;;;;;;5014293;28;20088;-56
2023/09/25 08:53:46;;;;;;;12.30;7.40;;;22.40;66.80;;;;;;5015435;28;20512;-58
2023/09/25 08:56:15;;;;;;;13.98;7.50;;;22.40;66.50;;;;;;5018752;28;20056;-58
2023/09/25 08:58:43;;;;;;;10.90;8.00;;;22.50;67.00;;;;;;5010631;28;20029;-58
2023/09/25 09:01:09;;;;;;;14.60;8.30;;;22.50;67.30;;;;;;5016801;28;20066;-58
2023/09/25 09:03:34;;;;;;;9.55;7.45;;;22.50;67.20;;;;;;5014088;28;20017;-58
2023/09/25 09:06:00;;;;;;;9.48;7.75;;;22.50;66.40;;;;;;5015737;28;20036;-58
2023/09/25 09:08:29;;;;;;;12.55;7.30;;;22.50;65.10;;;;;;5012151;28;20041;-58
2023/09/25 09:10:55;;;;;;;11.60;7.20;;;22.50;63.20;;;;;;5009651;28;20018;-58
2023/09/25 09:13:24;;;;;;;12.50;6.95;;;22.50;61.80;;;;;;5013646;28;20494;-58
2023/09/25 09:15:49;;;;;;;10.55;6.97;;;22.50;61.30;;;;;;5015990;28;20032;-58
2023/09/25 09:18:19;;;;;;;10.73;7.22;;;22.50;60.80;;;;;;5017279;28;20093;-58
2023/09/25 09:20:45;;;;;;;9.75;7.35;;;22.60;60.20;;;;;;5013661;28;20433;-58
2023/09/25 09:23:10;;;;;;;8.65;6.60;;;22.60;60.10;;;;;;5008362;28;20037;-58
2023/09/25 09:25:36;;;;;;;11.02;7.38;;;22.60;59.30;;;;;;5015776;28;20092;-58
2023/09/25 09:28:05;;;;;;;11.18;7.00;;;22.70;59.10;;;;;;5015876;28;20042;-57
2023/09/25 09:30:32;;;;;;;11.02;7.15;;;22.80;58.70;;;;;;5017498;28;20038;-59
2023/09/25 09:32:57;;;;;;;11.18;6.95;;;22.80;57.60;;;;;;5012178;28;20469;-57
2023/09/25 09:35:27;;;;;;;11.05;7.30;;;22.80;57.00;;;;;;5009092;28;20038;-59
2023/09/25 09:37:57;;;;;;;12.55;7.05;;;22.90;56.50;;;;;;5013608;28;20057;-58
2023/09/25 09:40:24;;;;;;;11.10;7.20;;;22.90;56.00;;;;;;5010883;28;20056;-57
2023/09/25 09:42:50;;;;;;;13.30;7.15;;;23.00;55.90;;;;;;5013536;28;20377;-58
2023/09/25 09:45:17;;;;;;;13.20;7.80;;;23.00;55.80;;;;;;5011972;28;20034;-59
2023/09/25 09:47:45;;;;;;;13.05;7.57;;;23.10;55.80;;;;;;5017320;28;20022;-58
2023/09/25 09:50:12;;;;;;;12.57;7.55;;;23.20;55.70;;;;;;5007614;28;20483;-58
2023/09/25 09:52:39;;;;;;;10.10;7.32;;;23.20;55.70;;;;;;5010239;28;20026;-59
2023/09/25 09:55:08;;;;;;;11.63;7.70;;;23.20;55.80;;;;;;5012444;28;20048;-59
2023/09/25 09:57:35;;;;;;;11.07;7.18;;;23.30;56.00;;;;;;5011374;28;20062;-58
2023/09/25 10:00:01;;;;;;;9.63;7.32;;;23.30;56.40;;;;;;5012497;28;20041;-58
2023/09/25 10:02:31;;;;;;;10.20;6.97;;;23.30;56.70;;;;;;5012764;28;20041;-58
2023/09/25 10:04:57;;;;;;;11.50;7.47;;;23.40;56.70;;;;;;5010561;28;20496;-58
2023/09/25 10:07:23;;;;;;;11.30;7.68;;;23.40;57.00;;;;;;5011829;28;20028;-57
2023/09/25 10:10:05;;;;;;;9.25;7.05;;;23.40;57.20;;;;;;5014809;28;20017;-57
2023/09/25 10:12:38;;;;;;;12.93;7.13;;;23.40;57.60;;;;;;5016301;28;20038;-57
2023/09/25 10:15:06;;;;;;;14.35;7.53;;;23.40;57.10;;;;;;5014836;28;20085;-58
2023/09/25 10:17:42;;;;;;;12.25;7.90;;;23.40;56.70;;;;;;5019365;28;20038;-57
2023/09/25 10:20:32;;;;;;;12.18;7.40;;;23.40;56.40;;;;;;5002648;28;20030;-57
2023/09/25 10:23:04;;;;;;;12.63;7.45;;;23.40;56.50;;;;;;5007255;28;20050;-57
2023/09/25 10:25:56;;;;;;;11.57;7.38;;;23.40;56.70;;;;;;5017820;28;20030;-58
2023/09/25 10:28:25;;;;;;;12.98;7.78;;;23.40;56.90;;;;;;5016405;28;20040;-58
2023/09/25 10:30:55;;;;;;;12.43;8.07;;;23.40;57.10;;;;;;5017696;28;20036;-58
2023/09/25 10:33:21;;;;;;;12.37;7.60;;;23.40;57.20;;;;;;5022512;28;20041;-58
2023/09/25 10:35:48;;;;;;;12.05;6.97;;;23.40;57.40;;;;;;5032235;28;20370;-57
2023/09/25 10:38:28;;;;;;;9.63;7.30;;;23.40;57.20;;;;;;5022119;28;20133;-57
2023/09/25 10:40:55;;;;;;;10.90;7.13;;;23.40;57.00;;;;;;5023059;28;20026;-58
2023/09/25 10:43:23;;;;;;;9.38;7.07;;;23.40;56.80;;;;;;5027541;28;20274;-57
2023/09/25 10:45:49;;;;;;;10.73;7.45;;;23.50;56.80;;;;;;5020809;28;20073;-58
2023/09/25 10:48:16;;;;;;;9.40;6.93;;;23.50;56.50;;;;;;5021912;28;20022;-59
2023/09/25 10:50:46;;;;;;;10.00;7.03;;;23.50;56.90;;;;;;5018163;28;20034;-58
2023/09/25 10:53:14;;;;;;;10.50;7.20;;;23.50;56.50;;;;;;5025513;28;20117;-57
2023/09/25 10:55:40;;;;;;;10.00;7.45;;;23.50;56.40;;;;;;5024943;28;20038;-57
2023/09/25 10:58:08;;;;;;;11.45;7.32;;;23.50;56.80;;;;;;5022174;28;20029;-57
2023/09/25 11:00:36;;;;;;;12.20;7.30;;;23.60;56.90;;;;;;5021158;28;20601;-56
2023/09/25 11:03:02;;;;;;;11.00;7.82;;;23.60;57.10;;;;;;5018860;28;20172;-58
2023/09/25 11:05:29;;;;;;;13.98;8.20;;;23.60;57.50;;;;;;5026890;28;20058;-55
2023/09/25 11:07:55;;;;;;;13.10;7.70;;;23.60;57.90;;;;;;5023397;28;20037;-57
2023/09/25 11:10:21;;;;;;;11.23;7.30;;;23.60;57.60;;;;;;5019259;28;20524;-58
2023/09/25 11:12:47;;;;;;;10.80;7.20;;;23.70;57.60;;;;;;5017931;28;20038;-58
2023/09/25 11:15:17;;;;;;;11.75;7.50;;;23.70;57.80;;;;;;5006963;28;20034;-60
2023/09/25 11:17:45;;;;;;;10.93;8.18;;;23.70;57.50;;;;;;4998705;28;20042;-56
2023/09/25 11:20:12;;;;;;;11.52;8.40;;;23.60;56.70;;;;;;5012384;28;20034;-56
2023/09/25 11:22:39;;;;;;;11.35;7.07;;;23.60;56.60;;;;;;5014655;28;20027;-59
2023/09/25 11:25:12;;;;;;;9.98;7.55;;;23.70;56.40;;;;;;5014392;28;20033;-58
2023/09/25 11:27:38;;;;;;;9.15;7.13;;;23.70;56.30;;;;;;5023332;28;20029;-56
2023/09/25 11:30:06;;;;;;;13.32;7.38;;;23.60;55.40;;;;;;5021354;28;20101;-59
2023/09/25 11:32:32;;;;;;;10.35;6.90;;;23.60;55.70;;;;;;5025074;28;20038;-58
2023/09/25 11:34:58;;;;;;;10.20;6.90;;;23.60;56.70;;;;;;5021613;28;20037;-59
2023/09/25 11:37:23;;;;;;;10.43;6.18;;;23.70;57.10;;;;;;5026463;28;20034;-57
2023/09/25 11:39:49;;;;;;;9.95;6.28;;;23.70;56.80;;;;;;5022505;28;20034;-57
2023/09/25 11:42:15;;;;;;;10.90;7.05;;;23.70;56.50;;;;;;5021164;28;20026;-57
2023/09/25 11:44:40;;;;;;;9.10;6.60;;;23.70;55.90;;;;;;5028060;28;20033;-58
2023/09/25 11:47:06;;;;;;;8.10;5.85;;;23.70;55.40;;;;;;5018217;28;20050;-58
2023/09/25 11:49:32;;;;;;;10.52;6.10;;;23.70;55.10;;;;;;5019963;28;20026;-56
2023/09/25 11:51:58;;;;;;;8.07;5.30;;;23.70;54.20;;;;;;5015760;28;20041;-58
2023/09/25 11:54:24;;;;;;;10.45;5.60;;;23.70;53.50;;;;;;5012810;28;20026;-58
2023/09/25 11:56:50;;;;;;;7.82;5.07;;;23.70;52.90;;;;;;5017950;28;20118;-58
2023/09/25 11:59:16;;;;;;;7.20;5.40;;;23.70;52.90;;;;;;5008467;28;20057;-58
2023/09/25 12:01:42;;;;;;;12.27;5.00;;;23.70;53.60;;;;;;5017012;28;20041;-57
2023/09/25 12:04:09;;;;;;;9.60;5.00;;;23.70;52.90;;;;;;5024936;28;20542;-56
2023/09/25 12:06:35;;;;;;;6.70;5.03;;;23.70;52.20;;;;;;5021589;28;20294;-58
2023/09/25 12:09:10;;;;;;;6.95;5.25;;;23.70;52.10;;;;;;5021466;28;20025;-58
2023/09/25 12:11:37;;;;;;;7.85;6.03;;;23.70;51.80;;;;;;5014013;28;20038;-59
2023/09/25 12:14:04;;;;;;;6.93;5.05;;;23.70;51.80;;;;;;5019968;28;20398;-56
2023/09/25 12:16:30;;;;;;;18.67;6.75;;;23.70;51.70;;;;;;5025899;28;20033;-55
2023/09/25 12:18:56;;;;;;;20.67;6.82;;;23.70;51.50;;;;;;5020368;28;20045;-56
2023/09/25 12:21:22;;;;;;;11.00;6.35;;;23.70;51.40;;;;;;5019964;28;20025;-55
2023/09/25 12:23:47;;;;;;;8.60;6.10;;;23.70;51.20;;;;;;5026576;28;20041;-56
2023/09/25 12:26:15;;;;;;;8.25;4.97;;;23.70;51.40;;;;;;5016217;28;20045;-57
2023/09/25 12:28:41;;;;;;;9.05;5.50;;;23.70;51.50;;;;;;5015581;28;20025;-54
2023/09/25 12:31:07;;;;;;;9.45;5.57;;;23.70;51.50;;;;;;5016795;28;20544;-56
2023/09/25 12:33:33;;;;;;;7.35;5.30;;;23.70;52.10;;;;;;5014626;28;20131;-54